Time;durP1;ratioP1;P1;durP2;ratioP2;P2;SDS_P1;SDS_P2;PMS_P1;PMS_P2;Temp;Humidity;BMP_temperature;BMP_pressure;BME280_temperature;BME280_humidity;BME280_pressure;Samples;Min_cycle;Max_cycle;Signal;HPM_P1;HPM_P2
2021/09/04 00:00:52;;;;;;;6.07;3.75;;;12.50;93.10;;;;;;6247248;23;20091;-88
2021/09/04 00:03:18;;;;;;;5.28;3.05;;;12.50;93.20;;;;;;6248611;22;20000;-87
2021/09/04 00:05:44;;;;;;;5.30;3.35;;;12.40;93.20;;;;;;6246836;23;20090;-88
2021/09/04 00:08:09;;;;;;;5.35;3.50;;;12.40;93.20;;;;;;6248349;22;19996;-88
2021/09/04 00:10:35;;;;;;;4.82;2.65;;;12.50;93.30;;;;;;6246744;23;20053;-87
2021/09/04 00:13:01;;;;;;;4.45;2.75;;;12.50;93.30;;;;;;6247806;23;20098;-87
2021/09/04 00:15:27;;;;;;;4.90;3.60;;;12.50;93.30;;;;;;6246749;23;19997;-88
2021/09/04 00:17:54;;;;;;;4.78;2.97;;;12.50;93.40;;;;;;6246422;23;20008;-87
2021/09/04 00:20:20;;;;;;;5.90;3.80;;;12.50;93.40;;;;;;6248379;23;20004;-87
2021/09/04 00:22:46;;;;;;;3.72;2.55;;;12.60;93.40;;;;;;6248309;23;20364;-87
2021/09/04 00:25:11;;;;;;;4.80;3.67;;;12.60;93.30;;;;;;6246790;23;20004;-87
2021/09/04 00:27:38;;;;;;;5.72;3.75;;;12.60;93.30;;;;;;6246679;23;20511;-87
2021/09/04 00:30:05;;;;;;;5.40;3.53;;;12.70;93.30;;;;;;6246907;23;20012;-88
2021/09/04 00:32:31;;;;;;;5.57;3.83;;;12.60;93.20;;;;;;6246534;23;20091;-87
2021/09/04 00:34:56;;;;;;;5.97;3.92;;;12.70;93.20;;;;;;6246633;23;20090;-88
2021/09/04 00:37:22;;;;;;;5.22;3.33;;;12.70;93.20;;;;;;6246435;23;20111;-87
2021/09/04 00:39:48;;;;;;;6.30;3.60;;;12.70;93.20;;;;;;6246606;23;20043;-87
2021/09/04 00:42:14;;;;;;;7.50;4.13;;;12.70;93.20;;;;;;6246717;22;20008;-87
2021/09/04 00:44:40;;;;;;;5.25;3.70;;;12.70;93.20;;;;;;6246921;23;20092;-87
2021/09/04 00:47:06;;;;;;;7.75;4.40;;;12.80;93.20;;;;;;6248591;23;19996;-87
2021/09/04 00:49:34;;;;;;;6.20;4.47;;;12.80;93.20;;;;;;6247864;22;20007;-87
2021/09/04 00:52:01;;;;;;;6.32;4.07;;;12.80;93.10;;;;;;6248149;22;20007;-87
2021/09/04 00:54:27;;;;;;;9.02;4.50;;;12.80;93.10;;;;;;6246471;23;20008;-87
2021/09/04 00:56:53;;;;;;;6.32;3.53;;;12.80;93.10;;;;;;6247686;23;20075;-87
2021/09/04 00:59:19;;;;;;;7.88;4.43;;;12.80;93.00;;;;;;6246847;23;20487;-87
2021/09/04 01:01:45;;;;;;;6.45;4.20;;;12.80;93.00;;;;;;6247999;22;20011;-87
2021/09/04 01:04:11;;;;;;;7.80;4.47;;;12.80;93.00;;;;;;6246489;23;20066;-87
2021/09/04 01:06:37;;;;;;;7.40;4.85;;;12.80;93.00;;;;;;6246295;23;20009;-87
2021/09/04 01:09:03;;;;;;;7.60;4.68;;;12.80;93.00;;;;;;6246266;23;20012;-87
2021/09/04 01:11:29;;;;;;;7.28;4.15;;;12.70;93.00;;;;;;6247834;23;20008;-88
2021/09/04 01:13:55;;;;;;;7.07;4.38;;;12.70;93.00;;;;;;6248196;23;20023;-87
2021/09/04 01:16:21;;;;;;;8.45;3.90;;;12.70;93.10;;;;;;6247957;22;19996;-88
2021/09/04 01:18:47;;;;;;;6.55;3.92;;;12.70;93.10;;;;;;6246130;23;20057;-88
2021/09/04 01:21:13;;;;;;;6.30;3.60;;;12.70;93.20;;;;;;6246172;23;20083;-87
2021/09/04 01:23:39;;;;;;;5.93;3.95;;;12.70;93.30;;;;;;6247866;22;20375;-87
2021/09/04 01:26:06;;;;;;;7.43;3.90;;;12.60;93.30;;;;;;6246090;23;20482;-87
2021/09/04 01:28:33;;;;;;;7.63;3.97;;;12.60;93.40;;;;;;6246194;23;20011;-87
2021/09/04 01:30:58;;;;;;;5.95;3.72;;;12.60;93.40;;;;;;6246491;23;20004;-87
2021/09/04 01:33:24;;;;;;;6.60;3.83;;;12.70;93.50;;;;;;6246016;23;20030;-88
2021/09/04 01:35:50;;;;;;;4.45;3.15;;;12.70;93.40;;;;;;6245236;23;20016;-88
2021/09/04 01:38:15;;;;;;;4.03;2.92;;;12.70;93.30;;;;;;6247349;23;20000;-88
2021/09/04 01:40:41;;;;;;;4.70;2.90;;;12.70;93.30;;;;;;6245585;22;20313;-88
2021/09/04 01:43:07;;;;;;;7.22;3.60;;;12.70;93.30;;;;;;6246030;23;20003;-88
2021/09/04 01:45:33;;;;;;;6.53;3.15;;;12.70;93.30;;;;;;6245977;23;20071;-88
2021/09/04 01:47:59;;;;;;;5.75;3.47;;;12.70;93.40;;;;;;6245897;23;20000;-87
2021/09/04 01:50:25;;;;;;;5.65;3.58;;;12.80;93.30;;;;;;6248032;23;20396;-88
2021/09/04 01:52:50;;;;;;;7.07;3.70;;;12.90;93.30;;;;;;6246437;23;20008;-87
2021/09/04 01:55:18;;;;;;;6.13;3.50;;;12.90;93.20;;;;;;6246279;23;20004;-87
2021/09/04 01:57:43;;;;;;;4.85;3.28;;;12.90;93.10;;;;;;6247167;23;20320;-87
2021/09/04 02:00:11;;;;;;;4.97;3.20;;;13.00;93.10;;;;;;6246761;23;20004;-88
2021/09/04 02:02:37;;;;;;;5.63;4.03;;;13.10;93.10;;;;;;6245538;23;20082;-87
2021/09/04 02:05:04;;;;;;;4.45;3.13;;;13.10;93.00;;;;;;6246417;23;20411;-87
2021/09/04 02:07:30;;;;;;;6.13;3.92;;;13.10;92.90;;;;;;6245674;23;20084;-87
2021/09/04 02:09:56;;;;;;;5.43;3.60;;;13.10;92.90;;;;;;6246868;23;20024;-87
2021/09/04 02:12:22;;;;;;;5.95;4.38;;;13.20;92.90;;;;;;6246374;23;20043;-87
2021/09/04 02:14:47;;;;;;;5.15;3.83;;;13.20;92.80;;;;;;6246884;23;20305;-87
2021/09/04 02:17:13;;;;;;;5.72;3.95;;;13.20;92.70;;;;;;6245583;23;20070;-88
2021/09/04 02:19:39;;;;;;;4.97;3.47;;;13.30;92.80;;;;;;6246259;23;20015;-87
2021/09/04 02:22:04;;;;;;;5.63;3.40;;;13.30;92.70;;;;;;6246097;23;20316;-88
2021/09/04 02:24:30;;;;;;;6.25;3.53;;;13.30;92.60;;;;;;6245887;23;20000;-88
2021/09/04 02:26:57;;;;;;;6.43;3.58;;;13.40;92.60;;;;;;6252578;23;20043;-87
2021/09/04 02:29:23;;;;;;;5.90;3.63;;;13.40;92.60;;;;;;6258250;23;20082;-88
2021/09/04 02:31:49;;;;;;;5.80;3.17;;;13.40;92.60;;;;;;6253303;23;20004;-88
2021/09/04 02:34:14;;;;;;;4.97;3.63;;;13.40;92.60;;;;;;6248137;22;20002;-88
2021/09/04 02:36:40;;;;;;;5.55;3.28;;;13.40;92.60;;;;;;6245592;23;20371;-88
2021/09/04 02:39:06;;;;;;;4.18;3.05;;;13.40;92.80;;;;;;6247348;22;20408;-88
2021/09/04 02:41:33;;;;;;;3.97;3.13;;;13.40;92.50;;;;;;6245465;22;20058;-87
2021/09/04 02:43:59;;;;;;;4.65;3.40;;;13.40;92.50;;;;;;6245575;23;19996;-88
2021/09/04 02:46:24;;;;;;;6.10;3.38;;;13.40;92.50;;;;;;6245961;23;20054;-87
2021/09/04 02:48:50;;;;;;;6.85;3.45;;;13.30;92.60;;;;;;6246054;23;20297;-87
2021/09/04 02:51:16;;;;;;;6.50;4.15;;;13.30;92.60;;;;;;6245509;23;20018;-88
2021/09/04 02:53:41;;;;;;;7.07;3.72;;;13.30;92.70;;;;;;6245461;23;20416;-88
2021/09/04 02:56:07;;;;;;;8.45;4.03;;;13.30;92.70;;;;;;6247838;23;20424;-87
2021/09/04 02:58:33;;;;;;;5.85;3.78;;;13.30;92.80;;;;;;6248005;22;20102;-87
2021/09/04 03:00:59;;;;;;;6.32;3.88;;;13.40;92.80;;;;;;6247118;22;20003;-87
2021/09/04 03:03:25;;;;;;;4.32;3.30;;;13.40;92.80;;;;;;6245767;23;20034;-87
2021/09/04 03:05:52;;;;;;;4.70;3.60;;;13.40;92.80;;;;;;6246944;23;19992;-87
2021/09/04 03:08:17;;;;;;;5.22;3.10;;;13.40;92.70;;;;;;6246004;23;20012;-87
2021/09/04 03:10:43;;;;;;;5.80;3.25;;;13.40;92.70;;;;;;6245393;23;20008;-88
2021/09/04 03:13:09;;;;;;;4.80;3.10;;;13.40;92.70;;;;;;6245061;23;20004;-87
2021/09/04 03:15:35;;;;;;;7.20;3.70;;;13.40;92.70;;;;;;6245407;23;20008;-87
2021/09/04 03:18:00;;;;;;;5.07;3.60;;;13.40;92.80;;;;;;6245283;23;20080;-87
2021/09/04 03:20:26;;;;;;;5.55;3.20;;;13.40;92.80;;;;;;6247996;22;20000;-87
2021/09/04 03:22:52;;;;;;;7.53;4.20;;;13.40;92.80;;;;;;6244827;23;20336;-87
2021/09/04 03:25:18;;;;;;;4.47;3.50;;;13.40;92.90;;;;;;6245526;23;20000;-88
2021/09/04 03:27:43;;;;;;;6.43;3.92;;;13.40;92.90;;;;;;6245215;23;20000;-87
2021/09/04 03:30:10;;;;;;;5.20;3.25;;;13.50;92.90;;;;;;6245051;23;20004;-87
2021/09/04 03:32:36;;;;;;;5.00;3.22;;;13.50;92.90;;;;;;6245666;23;20001;-87
2021/09/04 03:35:02;;;;;;;4.25;3.15;;;13.50;92.90;;;;;;6244981;23;20066;-88
2021/09/04 03:37:28;;;;;;;5.43;3.45;;;13.50;93.00;;;;;;6244865;23;20012;-88
2021/09/04 03:39:53;;;;;;;5.10;3.55;;;13.50;92.90;;;;;;6244938;23;20004;-87
2021/09/04 03:42:19;;;;;;;5.40;3.55;;;13.50;93.00;;;;;;6246611;22;20032;-88
2021/09/04 03:44:45;;;;;;;7.03;4.28;;;13.50;93.00;;;;;;6246825;23;20112;-87
2021/09/04 03:47:10;;;;;;;5.32;3.17;;;13.60;93.10;;;;;;6245117;23;20100;-87
2021/09/04 03:49:36;;;;;;;6.07;3.67;;;13.60;93.10;;;;;;6244981;23;20014;-87
2021/09/04 03:52:02;;;;;;;5.55;4.05;;;13.60;93.00;;;;;;6247182;23;20010;-87
2021/09/04 03:54:28;;;;;;;5.05;3.60;;;13.60;93.00;;;;;;6246295;23;19992;-87
2021/09/04 03:56:53;;;;;;;5.50;3.95;;;13.60;92.90;;;;;;6244999;23;20009;-87
2021/09/04 03:59:20;;;;;;;6.78;4.13;;;13.60;92.90;;;;;;6244992;23;20140;-87
2021/09/04 04:01:47;;;;;;;9.98;3.75;;;13.60;93.00;;;;;;6244984;23;20468;-87
2021/09/04 04:04:13;;;;;;;8.07;3.50;;;13.60;93.00;;;;;;6246205;22;20067;-87
2021/09/04 04:06:38;;;;;;;5.88;3.65;;;13.60;93.00;;;;;;6246516;23;20035;-87
2021/09/04 04:09:04;;;;;;;7.15;3.63;;;13.60;93.10;;;;;;6246496;22;20000;-87
2021/09/04 04:11:30;;;;;;;5.07;3.03;;;13.60;93.10;;;;;;6246578;23;20004;-87
2021/09/04 04:13:56;;;;;;;5.63;3.97;;;13.60;93.20;;;;;;6245770;23;20360;-86
2021/09/04 04:16:21;;;;;;;5.40;3.05;;;13.60;93.20;;;;;;6245427;23;20000;-87
2021/09/04 04:18:47;;;;;;;6.25;3.63;;;13.70;93.20;;;;;;6246728;23;20063;-87
2021/09/04 04:21:13;;;;;;;5.43;3.45;;;13.70;93.10;;;;;;6244975;23;20328;-87
2021/09/04 04:23:39;;;;;;;5.50;3.60;;;13.80;93.00;;;;;;6245379;23;20051;-87
2021/09/04 04:26:05;;;;;;;7.63;3.90;;;13.80;93.00;;;;;;6246464;23;20094;-87
2021/09/04 04:28:31;;;;;;;7.13;3.70;;;13.80;92.90;;;;;;6248184;23;20046;-87
2021/09/04 04:30:56;;;;;;;5.70;3.65;;;13.90;92.80;;;;;;6247065;23;20016;-87
2021/09/04 04:33:22;;;;;;;5.00;3.40;;;13.90;92.80;;;;;;6246466;23;20011;-87
2021/09/04 04:35:48;;;;;;;7.50;4.50;;;13.90;92.80;;;;;;6246026;23;20420;-87
2021/09/04 04:38:14;;;;;;;7.45;3.97;;;13.90;92.90;;;;;;6246534;23;20007;-87
2021/09/04 04:40:40;;;;;;;5.93;3.90;;;14.00;92.90;;;;;;6246365;22;20091;-87
2021/09/04 04:43:06;;;;;;;4.75;3.40;;;14.00;92.90;;;;;;6246314;23;20039;-88
2021/09/04 04:45:31;;;;;;;5.88;3.92;;;14.00;92.90;;;;;;6246501;23;20004;-87
2021/09/04 04:47:57;;;;;;;5.05;3.58;;;14.10;92.80;;;;;;6247211;23;20010;-87
2021/09/04 04:50:23;;;;;;;5.78;4.50;;;14.30;93.10;;;;;;6245959;23;20007;-87
2021/09/04 04:52:48;;;;;;;5.57;3.97;;;14.40;92.80;;;;;;6246237;23;20004;-88
2021/09/04 04:55:14;;;;;;;6.47;4.10;;;14.50;92.60;;;;;;6247030;23;20008;-88
2021/09/04 04:57:40;;;;;;;7.78;3.60;;;14.70;92.30;;;;;;6246336;23;20008;-87
2021/09/04 05:00:06;;;;;;;7.13;4.38;;;14.80;92.10;;;;;;6246181;23;20004;-88
2021/09/04 05:02:32;;;;;;;4.30;3.42;;;14.90;91.90;;;;;;6246583;23;20005;-87
2021/09/04 05:04:58;;;;;;;6.57;4.05;;;14.90;91.70;;;;;;6247514;23;19996;-88
2021/09/04 05:07:23;;;;;;;5.40;4.07;;;14.90;91.60;;;;;;6247788;23;20000;-88
2021/09/04 05:09:49;;;;;;;7.97;4.72;;;14.90;91.50;;;;;;6245996;23;20420;-87
2021/09/04 05:12:15;;;;;;;6.97;4.90;;;15.00;91.60;;;;;;6246256;23;20004;-87
2021/09/04 05:14:40;;;;;;;6.15;4.30;;;15.00;91.60;;;;;;6247031;23;20051;-87
2021/09/04 05:17:06;;;;;;;5.18;3.97;;;15.00;91.50;;;;;;6247964;23;20439;-86
2021/09/04 05:19:33;;;;;;;5.43;3.65;;;15.10;91.50;;;;;;6248105;23;20054;-87
2021/09/04 05:21:59;;;;;;;5.53;3.80;;;15.10;91.40;;;;;;6246243;23;20008;-87
2021/09/04 05:24:24;;;;;;;6.05;4.18;;;15.10;91.40;;;;;;6246268;23;20138;-87
2021/09/04 05:26:50;;;;;;;4.80;3.88;;;15.10;91.60;;;;;;6248093;23;20099;-87
2021/09/04 05:29:18;;;;;;;5.25;3.88;;;15.10;91.40;;;;;;6248162;22;20000;-87
2021/09/04 05:31:44;;;;;;;6.45;3.85;;;15.20;91.40;;;;;;6245902;23;20015;-87
2021/09/04 05:34:09;;;;;;;4.70;3.60;;;15.20;91.50;;;;;;6247919;23;20004;-88
2021/09/04 05:36:35;;;;;;;6.40;4.20;;;15.30;91.60;;;;;;6245783;23;20016;-88
2021/09/04 05:39:01;;;;;;;4.90;3.55;;;15.50;91.50;;;;;;6245918;23;20010;-88
2021/09/04 05:41:26;;;;;;;4.78;3.95;;;15.60;91.20;;;;;;6245890;22;20415;-87
2021/09/04 05:43:52;;;;;;;5.22;4.10;;;15.70;91.00;;;;;;6245462;23;20038;-88
2021/09/04 05:46:18;;;;;;;6.47;4.13;;;15.80;90.80;;;;;;6247515;23;20010;-88
2021/09/04 05:48:44;;;;;;;6.57;4.35;;;15.90;90.70;;;;;;6246573;23;20008;-88
2021/09/04 05:51:09;;;;;;;5.15;3.97;;;15.90;90.80;;;;;;6247290;22;20462;-88
2021/09/04 05:53:38;;;;;;;8.07;4.35;;;16.00;90.60;;;;;;6245899;23;20073;-88
2021/09/04 05:56:04;;;;;;;7.53;4.70;;;16.00;90.40;;;;;;6247282;22;20000;-88
2021/09/04 05:58:29;;;;;;;6.18;4.45;;;16.10;90.40;;;;;;6245428;23;20004;-88
2021/09/04 06:00:55;;;;;;;7.93;4.65;;;16.20;90.20;;;;;;6245390;23;20004;-89
2021/09/04 06:03:21;;;;;;;8.02;5.05;;;16.20;90.10;;;;;;6245409;23;20035;-88
2021/09/04 06:05:46;;;;;;;7.43;5.03;;;16.20;90.10;;;;;;6246624;23;19992;-87
2021/09/04 06:08:12;;;;;;;6.78;4.15;;;16.20;90.20;;;;;;6248040;22;20435;-87
2021/09/04 06:10:38;;;;;;;6.32;4.53;;;16.20;90.20;;;;;;6245201;23;20019;-88
2021/09/04 06:13:06;;;;;;;7.22;4.88;;;16.20;90.00;;;;;;6244536;23;20307;-88
2021/09/04 06:15:32;;;;;;;5.65;4.22;;;16.30;90.10;;;;;;6245889;23;20004;-88
2021/09/04 06:17:57;;;;;;;7.03;4.88;;;16.30;90.20;;;;;;6246728;23;20457;-87
2021/09/04 06:20:23;;;;;;;6.22;4.85;;;16.40;90.20;;;;;;6245552;23;20014;-87
2021/09/04 06:22:49;;;;;;;7.03;5.05;;;16.50;90.10;;;;;;6246706;23;20442;-87
2021/09/04 06:25:15;;;;;;;7.35;5.05;;;16.60;89.90;;;;;;6245437;23;20000;-88
2021/09/04 06:27:41;;;;;;;6.18;4.55;;;16.60;89.50;;;;;;6245141;23;20007;-88
2021/09/04 06:30:08;;;;;;;6.38;4.47;;;16.60;89.40;;;;;;6247087;22;20000;-88
2021/09/04 06:32:34;;;;;;;8.20;5.55;;;16.70;89.40;;;;;;6245269;23;20012;-88
2021/09/04 06:34:59;;;;;;;7.35;5.25;;;16.70;89.20;;;;;;6247159;22;20029;-89
2021/09/04 06:37:25;;;;;;;6.30;4.93;;;16.70;89.30;;;;;;6245080;23;20082;-88
2021/09/04 06:40:08;;;;;;;7.05;4.80;;;16.80;89.60;;;;;;6246654;23;20071;-89
2021/09/04 06:42:34;;;;;;;7.90;5.35;;;16.90;89.40;;;;;;6246037;23;20328;-89
2021/09/04 06:45:00;;;;;;;7.38;5.18;;;16.90;89.50;;;;;;6247259;22;20009;-88
2021/09/04 06:47:25;;;;;;;7.65;5.03;;;17.00;89.40;;;;;;6244920;23;20000;-88
2021/09/04 06:49:51;;;;;;;6.40;4.40;;;17.00;88.90;;;;;;6245059;23;20416;-88
2021/09/04 06:52:17;;;;;;;7.57;5.38;;;16.90;89.40;;;;;;6245113;23;20004;-89
2021/09/04 06:54:42;;;;;;;5.53;4.40;;;16.90;89.90;;;;;;6245069;23;20008;-89
2021/09/04 06:57:08;;;;;;;6.80;5.35;;;16.90;90.10;;;;;;6246839;23;20045;-89
2021/09/04 06:59:34;;;;;;;7.72;5.03;;;16.90;89.70;;;;;;6245464;23;20087;-89
2021/09/04 07:01:59;;;;;;;6.72;4.20;;;16.90;89.70;;;;;;6245048;23;20011;-88
2021/09/04 07:04:25;;;;;;;5.03;4.30;;;16.90;89.70;;;;;;6245275;23;20031;-89
2021/09/04 07:06:51;;;;;;;6.85;5.32;;;17.00;89.80;;;;;;6245053;23;20000;-89
2021/09/04 07:09:16;;;;;;;8.13;4.90;;;17.10;89.60;;;;;;6244850;23;20118;-89
2021/09/04 07:11:42;;;;;;;8.45;3.97;;;17.20;88.80;;;;;;6245207;23;20014;-89
2021/09/04 07:14:08;;;;;;;9.73;4.60;;;17.20;88.80;;;;;;6244953;23;20070;-89
2021/09/04 07:16:33;;;;;;;5.90;4.47;;;17.20;87.70;;;;;;6246590;23;20011;-89
2021/09/04 07:18:59;;;;;;;4.43;3.55;;;17.20;88.00;;;;;;6246946;22;20587;-89
2021/09/04 07:21:25;;;;;;;4.70;3.50;;;17.20;88.40;;;;;;6245552;23;20347;-88
2021/09/04 07:23:51;;;;;;;4.82;3.78;;;17.10;88.30;;;;;;6247251;22;19996;-89
2021/09/04 07:26:17;;;;;;;4.47;2.90;;;17.10;87.90;;;;;;6245136;23;20320;-89
2021/09/04 07:28:42;;;;;;;4.45;3.50;;;17.00;87.60;;;;;;6244836;23;20328;-89
2021/09/04 07:31:09;;;;;;;3.95;2.85;;;16.90;88.00;;;;;;6245596;23;20015;-89
2021/09/04 07:33:35;;;;;;;4.45;2.80;;;16.90;88.00;;;;;;6246452;22;20027;-89
2021/09/04 07:36:03;;;;;;;5.05;3.47;;;17.00;87.80;;;;;;6244954;23;20036;-89
2021/09/04 07:38:29;;;;;;;4.22;2.92;;;17.10;88.10;;;;;;6244994;23;20031;-89
2021/09/04 07:40:54;;;;;;;3.20;2.80;;;17.20;87.70;;;;;;6244746;22;20008;-89
2021/09/04 07:43:20;;;;;;;4.03;2.80;;;17.40;86.40;;;;;;6245007;23;20008;-88
2021/09/04 07:45:46;;;;;;;5.78;2.97;;;17.50;85.80;;;;;;6245074;23;20014;-89
2021/09/04 07:48:11;;;;;;;5.20;3.15;;;17.50;85.80;;;;;;6245101;23;20008;-88
2021/09/04 07:50:37;;;;;;;7.50;3.58;;;17.50;85.70;;;;;;6244878;23;20004;-89
2021/09/04 07:53:03;;;;;;;4.10;2.65;;;17.60;85.80;;;;;;6245378;23;20004;-89
2021/09/04 07:55:29;;;;;;;3.85;2.75;;;17.60;85.20;;;;;;6245003;23;20004;-89
2021/09/04 07:57:55;;;;;;;4.20;3.05;;;17.60;84.80;;;;;;6245318;23;20004;-89
2021/09/04 08:00:20;;;;;;;7.28;3.15;;;17.40;84.60;;;;;;6249933;23;20008;-89
2021/09/04 08:02:47;;;;;;;5.47;2.80;;;17.30;85.00;;;;;;6253218;23;20323;-89
2021/09/04 08:05:13;;;;;;;3.75;2.85;;;17.30;84.90;;;;;;6255123;22;20019;-89
2021/09/04 08:07:38;;;;;;;3.50;2.60;;;17.20;84.80;;;;;;6261532;23;20503;-89
2021/09/04 08:10:05;;;;;;;2.55;2.10;;;17.10;84.60;;;;;;6256299;23;20036;-89
2021/09/04 08:12:31;;;;;;;2.33;2.08;;;17.10;85.00;;;;;;6251782;23;20008;-89
2021/09/04 08:14:56;;;;;;;3.08;2.00;;;17.10;85.20;;;;;;6247625;23;20004;-89
2021/09/04 08:17:22;;;;;;;2.33;2.05;;;17.20;83.70;;;;;;6248008;23;20324;-89
2021/09/04 08:19:48;;;;;;;4.20;2.55;;;17.10;83.20;;;;;;6247976;23;20053;-89
2021/09/04 08:22:14;;;;;;;2.75;2.10;;;17.10;82.70;;;;;;6247659;23;20008;-89
2021/09/04 08:24:40;;;;;;;3.33;2.40;;;17.00;83.30;;;;;;6247141;23;20012;-89
2021/09/04 08:27:06;;;;;;;2.95;2.15;;;17.00;83.80;;;;;;6247675;23;20007;-89
2021/09/04 08:29:32;;;;;;;4.47;2.22;;;17.10;82.80;;;;;;6246204;23;20035;-89
2021/09/04 08:31:57;;;;;;;3.03;1.95;;;17.20;82.10;;;;;;6248394;23;20000;-89
2021/09/04 08:34:23;;;;;;;3.30;2.30;;;17.20;81.90;;;;;;6248401;22;20361;-89
2021/09/04 08:36:49;;;;;;;3.08;1.90;;;17.40;81.80;;;;;;6246427;23;20020;-89
2021/09/04 08:39:15;;;;;;;3.25;1.83;;;17.60;81.40;;;;;;6246252;23;20432;-89
2021/09/04 08:41:40;;;;;;;2.83;2.10;;;17.90;80.60;;;;;;6246122;22;20010;-89
2021/09/04 08:44:07;;;;;;;1.65;1.55;;;18.00;78.20;;;;;;6247992;23;20006;-89
2021/09/04 08:46:34;;;;;;;2.33;1.58;;;18.00;77.00;;;;;;6246593;23;20004;-89
2021/09/04 08:49:01;;;;;;;1.75;1.65;;;18.00;76.50;;;;;;6247163;23;20494;-88
2021/09/04 08:51:28;;;;;;;2.08;1.48;;;18.00;75.20;;;;;;6248623;22;20007;-88
2021/09/04 08:53:54;;;;;;;2.75;1.70;;;17.90;74.10;;;;;;6245920;23;20007;-88
2021/09/04 08:56:19;;;;;;;1.70;1.60;;;17.80;74.30;;;;;;6247687;22;20000;-89
2021/09/04 08:58:45;;;;;;;2.55;1.63;;;17.80;73.70;;;;;;6246180;23;20004;-89
2021/09/04 09:01:19;;;;;;;1.88;1.50;;;17.70;73.50;;;;;;6246216;23;20324;-90
2021/09/04 09:03:46;;;;;;;2.20;1.83;;;17.80;73.60;;;;;;6246171;23;20000;-90
2021/09/04 09:06:12;;;;;;;2.33;1.42;;;17.80;73.30;;;;;;6246581;23;20004;-90
2021/09/04 09:08:43;;;;;;;2.03;1.80;;;17.90;71.70;;;;;;6246069;23;20004;-89
2021/09/04 09:11:09;;;;;;;2.22;1.60;;;17.80;70.90;;;;;;6246287;23;20004;-90
2021/09/04 09:13:49;;;;;;;1.95;1.60;;;17.80;71.60;;;;;;6247483;22;19996;-89
2021/09/04 09:16:17;;;;;;;1.40;1.30;;;17.80;71.90;;;;;;6246107;23;20328;-89
2021/09/04 09:18:58;;;;;;;2.92;1.90;;;17.90;71.60;;;;;;6246014;23;20042;-90
2021/09/04 09:21:31;;;;;;;1.95;1.70;;;17.90;70.30;;;;;;6247317;23;20000;-91
2021/09/04 09:24:08;;;;;;;2.05;1.60;;;17.90;70.80;;;;;;6245457;23;20004;-91
2021/09/04 09:26:34;;;;;;;1.90;1.42;;;18.00;69.40;;;;;;6244552;23;20012;-92
2021/09/04 09:29:18;;;;;;;2.00;1.80;;;18.10;71.10;;;;;;6245541;23;20012;-89
2021/09/04 09:31:44;;;;;;;2.47;1.75;;;18.20;69.20;;;;;;6245391;23;20008;-90
2021/09/04 09:34:13;;;;;;;1.98;1.70;;;18.20;69.40;;;;;;6245022;23;20011;-90
2021/09/04 09:36:55;;;;;;;1.58;1.48;;;18.20;69.30;;;;;;6246757;22;20022;-92
2021/09/04 09:39:34;;;;;;;2.10;1.90;;;18.20;67.70;;;;;;6245224;23;20016;-91
2021/09/04 09:42:04;;;;;;;1.98;1.70;;;18.10;67.80;;;;;;6245217;22;20023;-91
2021/09/04 09:44:32;;;;;;;2.15;1.80;;;18.10;68.20;;;;;;6245899;23;20000;-91
2021/09/04 09:47:08;;;;;;;2.55;1.83;;;18.10;69.10;;;;;;6246087;23;20011;-90
2021/09/04 09:49:47;;;;;;;2.42;2.17;;;18.20;68.30;;;;;;6245824;23;20016;-93
2021/09/04 09:52:16;;;;;;;2.25;1.92;;;18.30;66.70;;;;;;6245769;23;20036;-89
2021/09/04 09:54:45;;;;;;;2.20;1.90;;;18.30;67.20;;;;;;6245754;23;20000;-89
2021/09/04 09:57:13;;;;;;;3.92;2.13;;;18.40;67.40;;;;;;6246464;23;20007;-92
2021/09/04 09:59:46;;;;;;;2.20;2.00;;;18.50;66.40;;;;;;6246856;23;20313;-93
2021/09/04 10:02:38;;;;;;;3.17;2.00;;;18.50;65.70;;;;;;6247023;23;20050;-92
2021/09/04 10:05:06;;;;;;;2.38;1.90;;;18.50;64.50;;;;;;6220546;23;20035;-92
2021/09/04 10:07:36;;;;;;;2.78;2.15;;;18.50;65.40;;;;;;6220974;23;20083;-91
2021/09/04 10:10:03;;;;;;;2.03;1.77;;;18.60;65.20;;;;;;6245830;23;20004;-90
2021/09/04 10:12:30;;;;;;;4.43;2.40;;;18.60;64.70;;;;;;6245919;22;20008;-87
2021/09/04 10:14:56;;;;;;;3.25;2.00;;;18.60;65.00;;;;;;6219718;23;20119;-92
2021/09/04 10:17:22;;;;;;;2.47;1.90;;;18.70;65.10;;;;;;6245095;23;20063;-89
2021/09/04 10:19:49;;;;;;;2.55;1.98;;;18.90;65.10;;;;;;6246506;22;20336;-89
2021/09/04 10:22:19;;;;;;;2.50;2.00;;;19.00;64.40;;;;;;6244616;23;20011;-90
2021/09/04 10:24:53;;;;;;;4.10;2.33;;;19.10;64.20;;;;;;6245502;23;20412;-89
2021/09/04 10:27:32;;;;;;;1.70;1.38;;;19.10;63.30;;;;;;6245024;23;20501;-87
2021/09/04 10:30:29;;;;;;;2.88;1.88;;;19.10;63.30;;;;;;6245137;23;20276;-86
2021/09/04 10:32:58;;;;;;;3.97;1.70;;;19.00;60.50;;;;;;6245032;23;20023;-88
2021/09/04 10:35:46;;;;;;;1.85;1.45;;;18.90;62.90;;;;;;6244860;23;20424;-88
2021/09/04 10:38:18;;;;;;;1.67;1.52;;;18.90;60.10;;;;;;6245744;23;20391;-86
2021/09/04 10:40:49;;;;;;;2.13;1.70;;;19.00;61.40;;;;;;6244893;22;20012;-87
2021/09/04 10:43:22;;;;;;;2.30;1.35;;;19.10;61.90;;;;;;6242333;23;20086;-89
2021/09/04 10:45:50;;;;;;;2.17;1.27;;;19.20;61.90;;;;;;6220702;23;20008;-88
2021/09/04 10:48:18;;;;;;;2.22;1.70;;;19.30;60.40;;;;;;6244635;23;20046;-88
2021/09/04 10:51:04;;;;;;;2.40;1.50;;;19.30;59.50;;;;;;6244336;23;20004;-89
2021/09/04 10:53:44;;;;;;;2.33;1.48;;;19.10;57.80;;;;;;6244573;23;20036;-87
2021/09/04 10:56:29;;;;;;;5.25;1.60;;;18.80;58.50;;;;;;6246222;23;20000;-87
2021/09/04 10:58:58;;;;;;;1.75;1.60;;;18.70;59.60;;;;;;6244978;23;20088;-88
2021/09/04 11:01:52;;;;;;;2.58;1.63;;;18.60;59.90;;;;;;6245439;23;20008;-88
2021/09/04 11:04:18;;;;;;;3.92;2.30;;;18.50;59.00;;;;;;6244408;23;20008;-88
2021/09/04 11:06:49;;;;;;;1.60;1.50;;;18.30;60.40;;;;;;6243637;23;19996;-87
2021/09/04 11:09:19;;;;;;;2.38;1.60;;;18.30;60.40;;;;;;6213865;23;20024;-87
2021/09/04 11:11:44;;;;;;;1.95;1.52;;;18.20;60.30;;;;;;6239891;23;20039;-86
2021/09/04 11:14:21;;;;;;;1.67;1.58;;;18.20;61.00;;;;;;6213794;23;20004;-87
2021/09/04 11:16:58;;;;;;;1.52;1.38;;;18.10;60.40;;;;;;6214512;23;20005;-86
2021/09/04 11:19:35;;;;;;;3.20;1.92;;;18.10;61.50;;;;;;6213688;23;20009;-87
2021/09/04 11:22:11;;;;;;;2.28;1.70;;;18.00;61.70;;;;;;6214294;23;20079;-89
2021/09/04 11:24:39;;;;;;;4.63;4.22;;;18.00;61.10;;;;;;6214443;23;20005;-87
2021/09/04 11:27:20;;;;;;;1.95;1.75;;;18.00;61.70;;;;;;6214591;23;20007;-89
2021/09/04 11:29:52;;;;;;;2.47;1.65;;;18.00;61.20;;;;;;6214387;23;20019;-88
2021/09/04 11:32:25;;;;;;;3.47;1.77;;;18.00;61.80;;;;;;6214883;23;19997;-90
2021/09/04 11:34:57;;;;;;;1.60;1.50;;;18.20;60.80;;;;;;6215554;23;20043;-89
2021/09/04 11:37:30;;;;;;;1.48;1.35;;;18.20;60.80;;;;;;6215345;23;20459;-89
2021/09/04 11:40:10;;;;;;;1.90;1.50;;;18.30;59.90;;;;;;6217389;23;20005;-89
2021/09/04 11:42:48;;;;;;;2.53;1.50;;;18.40;59.90;;;;;;6216877;23;20007;-90
2021/09/04 11:45:21;;;;;;;2.83;1.80;;;18.50;59.20;;;;;;6218226;23;20003;-90
2021/09/04 11:47:57;;;;;;;2.47;1.60;;;18.60;56.60;;;;;;6215783;23;20320;-87
2021/09/04 11:50:27;;;;;;;1.63;1.52;;;18.60;55.70;;;;;;6207915;23;20458;-84
2021/09/04 11:52:55;;;;;;;2.28;1.50;;;18.60;56.10;;;;;;6215150;23;20383;-85
2021/09/04 11:55:27;;;;;;;1.75;1.25;;;18.60;56.30;;;;;;6214475;23;20035;-85
2021/09/04 11:58:01;;;;;;;2.67;1.77;;;18.60;56.90;;;;;;6213831;23;19996;-85
2021/09/04 12:00:34;;;;;;;1.50;1.35;;;18.70;56.20;;;;;;6213367;23;20004;-85
2021/09/04 12:03:02;;;;;;;1.73;1.35;;;18.70;56.20;;;;;;6213436;23;20171;-85
2021/09/04 12:05:30;;;;;;;2.30;1.98;;;18.70;56.10;;;;;;6213140;23;20088;-85
2021/09/04 12:08:07;;;;;;;2.92;2.22;;;18.80;56.10;;;;;;6189165;23;20012;-85
2021/09/04 12:10:36;;;;;;;1.98;1.52;;;18.80;56.30;;;;;;6214764;23;20424;-85
2021/09/04 12:13:05;;;;;;;2.15;1.60;;;18.60;57.00;;;;;;6216894;23;20000;-86
2021/09/04 12:19:18;;;;;;;1.58;1.48;;;18.60;56.50;;;;;;6217016;23;20011;-95
2021/09/04 12:22:02;;;;;;;2.22;1.77;;;18.60;54.90;;;;;;6220940;23;20313;-94
2021/09/04 12:24:42;;;;;;;1.92;1.40;;;18.60;53.20;;;;;;6217018;23;20013;-93
2021/09/04 12:27:37;;;;;;;3.15;1.40;;;18.60;54.00;;;;;;6217800;23;20000;-94
2021/09/04 12:30:12;;;;;;;;;;;18.60;52.60;;;;;;6215760;23;20100;-95
2021/09/04 12:32:40;;;;;;;1.77;1.40;;;18.50;51.20;;;;;;6217345;23;19907;-94
2021/09/04 12:35:11;;;;;;;1.90;1.52;;;18.60;52.50;;;;;;6216029;23;20055;-94
2021/09/04 12:37:42;;;;;;;1.70;1.60;;;18.60;52.90;;;;;;6215955;23;20029;-94
2021/09/04 12:40:12;;;;;;;2.33;1.73;;;18.80;52.50;;;;;;6215014;23;20012;-93
2021/09/04 12:42:40;;;;;;;1.67;1.52;;;18.90;52.40;;;;;;6217106;23;20320;-92
2021/09/04 12:45:13;;;;;;;2.08;1.58;;;18.90;52.20;;;;;;6193837;23;20024;-93
2021/09/04 12:47:41;;;;;;;;;;;18.90;52.60;;;;;;6216241;23;20008;-93
2021/09/04 12:50:07;;;;;;;2.13;1.75;;;18.90;52.50;;;;;;6217727;23;19907;-93
2021/09/04 12:52:39;;;;;;;1.42;1.23;;;19.00;52.90;;;;;;6218695;23;20005;-92
2021/09/04 12:55:06;;;;;;;2.13;1.92;;;19.10;52.70;;;;;;6220042;23;20348;-92